createdAt,value
2019-01-02T00:01:42.000Z,1.80
2019-01-02T00:04:15.204Z,1.80
2019-01-02T00:06:45.070Z,1.80
2019-01-02T00:09:16.580Z,1.70
2019-01-02T00:11:49.516Z,1.80
2019-01-02T00:14:19.300Z,1.80
2019-01-02T00:16:52.643Z,1.90
2019-01-02T00:19:40.976Z,2.00
2019-01-02T00:22:13.078Z,2.10
2019-01-02T00:24:42.874Z,2.20
2019-01-02T00:27:19.123Z,2.30
2019-01-02T00:29:55.392Z,2.40
2019-01-02T00:32:28.766Z,2.50
2019-01-02T00:35:02.072Z,2.50
2019-01-02T00:37:32.136Z,2.50
2019-01-02T00:40:05.044Z,2.60
2019-01-02T00:42:38.029Z,2.60
2019-01-02T00:45:08.449Z,2.60
2019-01-02T00:47:39.725Z,2.50
2019-01-02T00:50:14.128Z,2.50
2019-01-02T00:52:43.978Z,2.30
2019-01-02T00:55:17.685Z,2.00
2019-01-02T00:58:02.115Z,1.80
2019-01-02T01:00:32.578Z,1.70
2019-01-02T01:03:05.107Z,1.60
2019-01-02T01:05:42.693Z,1.50
2019-01-02T01:08:15.308Z,1.40
2019-01-02T01:10:45.532Z,1.50
2019-01-02T01:13:18.008Z,1.50
2019-01-02T01:15:51.003Z,1.50
2019-01-02T01:18:20.704Z,1.50
2019-01-02T01:20:52.780Z,1.60
2019-01-02T01:23:25.667Z,1.60
2019-01-02T01:25:55.550Z,1.60
2019-01-02T01:28:28.648Z,1.60
2019-01-02T01:31:02.139Z,1.60
2019-01-02T01:33:31.857Z,1.50
2019-01-02T01:36:05.660Z,1.50
2019-01-02T01:38:39.013Z,1.50
2019-01-02T01:41:08.796Z,1.50
2019-01-02T01:43:40.780Z,1.60
2019-01-02T01:46:26.081Z,1.60
2019-01-02T01:48:55.772Z,1.50
2019-01-02T01:51:27.964Z,1.50
2019-01-02T01:53:57.703Z,1.50
2019-01-02T01:56:29.981Z,1.60
2019-01-02T01:59:03.099Z,1.60
2019-01-02T02:01:32.877Z,1.60
2019-01-02T02:04:04.813Z,1.60
2019-01-02T02:06:38.265Z,1.60
2019-01-02T02:09:08.133Z,1.60
2019-01-02T02:11:41.917Z,1.60
2019-01-02T02:14:14.979Z,1.60
2019-01-02T02:16:44.732Z,1.60
2019-01-02T02:19:17.545Z,1.50
2019-01-02T02:21:49.381Z,1.50
2019-01-02T02:24:19.053Z,1.50
2019-01-02T02:26:51.584Z,1.40
2019-01-02T02:29:21.311Z,1.50
2019-01-02T02:31:52.979Z,1.50
2019-01-02T02:34:25.654Z,1.60
2019-01-02T02:36:56.293Z,1.60
2019-01-02T02:39:32.788Z,1.50
2019-01-02T02:42:06.042Z,1.60
2019-01-02T02:44:38.389Z,1.60
2019-01-02T02:47:08.101Z,1.60
2019-01-02T02:49:40.924Z,1.60
2019-01-02T02:52:13.370Z,1.60
2019-01-02T02:54:43.046Z,1.60
2019-01-02T02:57:15.495Z,1.60
2019-01-02T02:59:50.897Z,1.60
2019-01-02T03:02:18.189Z,1.70
2019-01-02T03:04:51.053Z,1.70
2019-01-02T03:07:21.195Z,1.70
2019-01-02T03:09:52.878Z,1.70
2019-01-02T03:12:25.480Z,1.70
2019-01-02T03:14:55.274Z,1.70
2019-01-02T03:17:27.240Z,1.60
2019-01-02T03:19:57.375Z,1.60
2019-01-02T03:22:29.058Z,1.60
2019-01-02T03:25:01.791Z,1.60
2019-01-02T03:27:32.012Z,1.60
2019-01-02T03:30:05.445Z,1.60
2019-01-02T03:32:38.901Z,1.60
2019-01-02T03:35:09.206Z,1.60
2019-01-02T03:37:40.067Z,1.60
2019-01-02T03:40:09.916Z,1.70
2019-01-02T03:42:42.326Z,1.70
2019-01-02T03:45:17.791Z,1.70
2019-01-02T03:47:51.127Z,1.60
2019-01-02T03:50:21.298Z,1.60
2019-01-02T03:52:52.702Z,1.50
2019-01-02T03:55:37.518Z,1.50
2019-01-02T03:58:07.297Z,1.50
2019-01-02T04:00:39.304Z,1.50
2019-01-02T04:03:09.012Z,1.50
2019-01-02T04:05:42.044Z,1.50
2019-01-02T04:08:15.778Z,1.50
2019-01-02T04:10:45.533Z,1.60
2019-01-02T04:13:16.850Z,1.60
2019-01-02T04:15:49.368Z,1.60
2019-01-02T04:18:19.076Z,1.50
2019-01-02T04:20:51.540Z,1.50
2019-01-02T04:23:21.223Z,1.50
2019-01-02T04:25:53.653Z,1.60
2019-01-02T04:28:25.628Z,1.60
2019-01-02T04:30:55.370Z,1.60
2019-01-02T04:33:27.370Z,1.60
2019-01-02T04:35:57.032Z,1.50
2019-01-02T04:38:39.397Z,1.50
2019-01-02T04:41:09.086Z,1.60
2019-01-02T04:43:42.436Z,1.50
2019-01-02T04:46:14.601Z,1.50
2019-01-02T04:48:44.411Z,1.60
2019-01-02T04:51:17.261Z,1.60
2019-01-02T04:53:50.564Z,1.60
2019-01-02T04:56:20.245Z,1.60
2019-01-02T04:58:53.740Z,1.60
2019-01-02T05:01:25.674Z,1.60
2019-01-02T05:03:55.372Z,1.60
2019-01-02T05:06:29.058Z,1.50
2019-01-02T05:09:08.524Z,1.50
2019-01-02T05:11:40.964Z,1.50
2019-01-02T05:14:15.046Z,1.50
2019-01-02T05:16:44.869Z,1.50
2019-01-02T05:19:18.097Z,1.50
2019-01-02T05:21:55.160Z,1.50
2019-01-02T05:24:27.962Z,1.50
2019-01-02T05:26:57.716Z,1.50
2019-01-02T05:29:39.297Z,1.60
2019-01-02T05:32:06.393Z,1.60
2019-01-02T05:34:39.169Z,1.60
2019-01-02T05:37:08.884Z,1.60
2019-01-02T05:39:40.944Z,1.70
2019-01-02T05:42:13.141Z,1.60
2019-01-02T05:44:42.606Z,1.70
2019-01-02T05:47:15.362Z,1.60
2019-01-02T05:49:45.129Z,1.70
2019-01-02T05:52:21.819Z,1.70
2019-01-02T05:54:53.573Z,1.70
2019-01-02T05:57:26.172Z,1.70
2019-01-02T05:59:55.869Z,1.70
2019-01-02T06:02:31.325Z,1.70
2019-01-02T06:05:03.953Z,1.70
2019-01-02T06:07:39.713Z,1.60
2019-01-02T06:10:18.597Z,1.70
2019-01-02T06:12:51.421Z,1.70
2019-01-02T06:15:21.081Z,1.70
2019-01-02T06:18:03.617Z,1.70
2019-01-02T06:20:33.388Z,1.70
2019-01-02T06:23:04.751Z,1.70
2019-01-02T06:25:37.262Z,1.70
2019-01-02T06:28:26.197Z,1.80
2019-01-02T06:30:56.038Z,1.80
2019-01-02T06:33:28.497Z,1.80
2019-01-02T06:35:58.173Z,1.80
2019-01-02T06:38:29.541Z,1.80
2019-01-02T06:41:05.140Z,1.80
2019-01-02T06:43:37.320Z,1.80
2019-01-02T06:46:06.596Z,1.80
2019-01-02T06:48:40.821Z,1.80
2019-01-02T06:51:10.500Z,1.90
2019-01-02T06:53:43.861Z,1.80
2019-01-02T06:56:17.987Z,1.90
2019-01-02T06:58:50.036Z,1.90
2019-01-02T07:01:19.720Z,1.90
2019-01-02T07:03:52.386Z,1.80
2019-01-02T07:06:22.121Z,1.90
2019-01-02T07:08:53.495Z,1.90
2019-01-02T07:11:25.846Z,1.90
2019-01-02T07:13:55.601Z,1.90
2019-01-02T07:16:28.135Z,1.90
2019-01-02T07:18:57.824Z,1.90
2019-01-02T07:21:28.999Z,1.90
2019-01-02T07:24:05.030Z,1.90
2019-01-02T07:26:32.955Z,1.90
2019-01-02T07:29:05.990Z,1.90
2019-01-02T07:31:40.257Z,1.90
2019-01-02T07:34:33.128Z,1.90
2019-01-02T07:37:56.852Z,1.90
2019-01-02T07:40:51.904Z,1.90
2019-01-02T07:44:03.961Z,1.90
2019-01-02T07:47:04.224Z,1.90
2019-01-02T07:50:10.177Z,1.90
2019-01-02T07:53:15.965Z,1.90
2019-01-02T07:56:39.810Z,1.90
2019-01-02T08:02:51.961Z,1.90
2019-01-02T08:06:04.945Z,1.90
2019-01-02T08:09:27.478Z,2.00
2019-01-02T08:12:41.130Z,1.90
2019-01-02T08:15:51.662Z,2.00
2019-01-02T08:19:04.882Z,2.00
2019-01-02T08:22:26.352Z,2.00
2019-01-02T08:25:42.189Z,2.00
2019-01-02T08:28:52.479Z,2.00
2019-01-02T08:32:15.218Z,2.00
2019-01-02T08:35:04.112Z,2.00
2019-01-02T08:38:09.977Z,2.00
2019-01-02T08:41:19.862Z,2.00
2019-01-02T08:44:15.881Z,2.00
2019-01-02T08:47:04.176Z,2.10
2019-01-02T08:50:16.524Z,2.00
2019-01-02T08:53:04.029Z,2.10
2019-01-02T08:56:04.167Z,2.10
2019-01-02T08:59:02.868Z,2.10
2019-01-02T09:01:52.842Z,2.10
2019-01-02T09:05:06.746Z,2.00
2019-01-02T09:08:15.482Z,2.10
2019-01-02T09:11:17.014Z,2.20
2019-01-02T09:14:31.844Z,2.30
2019-01-02T09:17:28.161Z,2.40
2019-01-02T09:20:38.415Z,2.50
2019-01-02T09:23:42.127Z,2.50
2019-01-02T09:27:04.102Z,2.50
2019-01-02T09:30:45.891Z,2.50
2019-01-02T09:33:54.372Z,3.00
2019-01-02T09:37:17.213Z,3.80
2019-01-02T09:41:07.076Z,4.30
2019-01-02T09:44:04.390Z,4.30
2019-01-02T09:47:28.271Z,4.00
2019-01-02T09:50:33.749Z,3.80
2019-01-02T09:53:50.311Z,3.80
2019-01-02T09:57:02.533Z,3.70
2019-01-02T10:00:19.722Z,3.80
2019-01-02T10:03:16.280Z,3.70
2019-01-02T10:06:15.758Z,3.60
2019-01-02T10:09:22.342Z,3.40
2019-01-02T10:12:27.920Z,3.30
2019-01-02T10:15:43.181Z,3.20
2019-01-02T10:18:50.388Z,3.10
2019-01-02T10:22:04.599Z,3.10
2019-01-02T10:25:04.320Z,3.10
2019-01-02T10:28:18.107Z,3.60
2019-01-02T10:31:16.309Z,3.90
2019-01-02T10:34:07.671Z,3.90
2019-01-02T10:37:31.741Z,3.90
2019-01-02T10:40:40.669Z,3.90
2019-01-02T10:43:58.510Z,3.70
2019-01-02T10:47:14.680Z,3.60
2019-01-02T10:50:16.458Z,3.40
2019-01-02T10:53:31.537Z,3.30
2019-01-02T10:56:51.832Z,3.50
2019-01-02T11:00:10.997Z,3.60
2019-01-02T11:03:28.588Z,3.70
2019-01-02T11:06:53.595Z,3.50
2019-01-02T11:09:53.329Z,3.30
2019-01-02T11:12:52.228Z,3.30
2019-01-02T11:15:50.538Z,3.30
2019-01-02T11:19:07.373Z,3.30
2019-01-02T11:22:10.099Z,3.40
2019-01-02T11:25:30.785Z,3.40
2019-01-02T11:28:42.945Z,3.30
2019-01-02T11:31:51.516Z,3.20
2019-01-02T11:34:45.025Z,3.10
2019-01-02T11:37:30.892Z,3.60
2019-01-02T11:40:45.020Z,4.40
2019-01-02T11:44:02.848Z,5.40
2019-01-02T11:46:32.610Z,6.10
2019-01-02T11:49:06.716Z,5.80
2019-01-02T11:51:38.836Z,5.40
2019-01-02T11:54:08.538Z,5.30
2019-01-02T11:56:42.304Z,5.20
2019-01-02T11:59:15.141Z,5.40
2019-01-02T12:02:04.580Z,6.20
2019-01-02T12:04:34.564Z,7.20
2019-01-02T12:07:07.189Z,8.10
2019-01-02T12:09:40.104Z,8.10
2019-01-02T12:12:09.845Z,8.80
2019-01-02T12:14:44.977Z,9.20
2019-01-02T12:17:17.698Z,10.00
2019-01-02T12:19:47.373Z,10.20
2019-01-02T12:22:20.710Z,10.40
2019-01-02T12:24:53.371Z,10.60
2019-01-02T12:27:23.136Z,9.90
2019-01-02T12:29:54.529Z,9.60
2019-01-02T12:32:27.042Z,9.20
2019-01-02T12:35:17.448Z,9.20
2019-01-02T12:37:47.132Z,9.00
2019-01-02T12:40:18.541Z,8.90
2019-01-02T12:42:50.957Z,9.00
2019-01-02T12:45:20.667Z,8.70
2019-01-02T12:47:54.749Z,8.10
2019-01-02T12:50:26.950Z,7.90
2019-01-02T12:52:56.647Z,7.70
2019-01-02T12:55:30.620Z,7.30
2019-01-02T12:58:03.888Z,6.70
2019-01-02T13:00:42.181Z,6.10
2019-01-02T13:03:54.617Z,5.50
2019-01-02T13:07:04.621Z,5.00
2019-01-02T13:09:47.074Z,4.50
2019-01-02T13:13:16.669Z,4.10
2019-01-02T13:16:22.540Z,4.00
2019-01-02T13:19:43.536Z,3.90
2019-01-02T13:22:53.353Z,3.80
2019-01-02T13:25:56.832Z,3.80
2019-01-02T13:29:04.804Z,3.80
2019-01-02T13:32:04.046Z,3.80
2019-01-02T13:35:20.065Z,3.90
2019-01-02T13:38:28.626Z,3.90
2019-01-02T13:41:27.091Z,3.90
2019-01-02T13:44:29.009Z,3.90
2019-01-02T13:47:45.209Z,3.90
2019-01-02T13:50:54.076Z,4.10
2019-01-02T13:53:20.529Z,4.00
2019-01-02T13:55:54.153Z,4.20
2019-01-02T13:58:28.497Z,4.20
2019-01-02T14:00:55.956Z,4.00
2019-01-02T14:03:28.064Z,3.90
2019-01-02T14:05:57.753Z,3.90
2019-01-02T14:08:30.937Z,3.90
2019-01-02T14:11:04.934Z,4.00
2019-01-02T14:13:40.589Z,4.10
2019-01-02T14:16:10.273Z,4.40
2019-01-02T14:18:45.749Z,4.50
2019-01-02T14:21:18.601Z,4.60
2019-01-02T14:23:55.825Z,4.40
2019-01-02T14:26:29.232Z,4.10
2019-01-02T14:28:58.942Z,3.80
2019-01-02T14:31:31.808Z,3.60
2019-01-02T14:34:04.533Z,3.50
2019-01-02T14:36:34.225Z,3.50
2019-01-02T14:39:16.187Z,3.40
2019-01-02T14:41:45.949Z,3.50
2019-01-02T14:44:19.498Z,3.70
2019-01-02T14:46:51.932Z,3.70
2019-01-02T14:49:21.612Z,3.60
2019-01-02T14:51:54.141Z,3.40
2019-01-02T14:54:26.584Z,3.30
2019-01-02T14:56:56.019Z,3.20
2019-01-02T14:59:30.003Z,3.10
2019-01-02T15:01:59.761Z,3.10
2019-01-02T15:04:31.886Z,3.10
2019-01-02T15:07:05.424Z,3.20
2019-01-02T15:09:35.109Z,3.30
2019-01-02T15:12:06.488Z,3.40
2019-01-02T15:14:54.650Z,3.30
2019-01-02T15:17:27.074Z,3.10
2019-01-02T15:19:56.740Z,3.00
2019-01-02T15:22:29.348Z,3.00
2019-01-02T15:24:59.109Z,2.90
2019-01-02T15:27:30.393Z,2.70
2019-01-02T15:30:03.308Z,2.60
2019-01-02T15:32:33.141Z,2.40
2019-01-02T15:35:07.288Z,2.30
2019-01-02T15:37:39.310Z,2.10
2019-01-02T15:40:10.961Z,2.00
2019-01-02T15:42:43.785Z,1.90
2019-01-02T15:45:16.111Z,1.80
2019-01-02T15:47:45.794Z,1.70
2019-01-02T15:50:18.307Z,1.70
2019-01-02T15:52:53.981Z,1.60
2019-01-02T15:55:23.837Z,1.60
2019-01-02T15:57:56.471Z,1.70
2019-01-02T16:00:29.007Z,1.70
2019-01-02T16:02:58.772Z,1.70
2019-01-02T16:05:30.144Z,1.70
2019-01-02T16:07:59.816Z,1.80
2019-01-02T16:10:33.519Z,1.80
2019-01-02T16:13:06.267Z,1.90
2019-01-02T16:15:35.989Z,1.90
2019-01-02T16:18:09.903Z,2.00
2019-01-02T16:20:42.077Z,2.00
2019-01-02T16:23:11.776Z,2.00
2019-01-02T16:25:44.615Z,1.90
2019-01-02T16:28:32.741Z,1.80
2019-01-02T16:31:05.263Z,1.60
2019-01-02T16:33:35.063Z,1.50
2019-01-02T16:36:06.047Z,1.40
2019-01-02T16:38:53.608Z,1.40
2019-01-02T16:41:29.051Z,1.30
2019-01-02T16:43:56.201Z,1.20
2019-01-02T16:46:28.960Z,1.10
2019-01-02T16:48:58.740Z,1.10
2019-01-02T16:51:43.433Z,1.00
2019-01-02T16:54:15.897Z,0.90
2019-01-02T16:56:45.590Z,1.00
2019-01-02T16:59:19.067Z,0.90
2019-01-02T17:01:51.621Z,0.90
2019-01-02T17:04:21.400Z,0.90
2019-01-02T17:06:53.332Z,1.00
2019-01-02T17:09:23.117Z,0.90
2019-01-02T17:11:55.969Z,0.90
2019-01-02T17:14:28.548Z,0.80
2019-01-02T17:16:58.235Z,0.80
2019-01-02T17:19:30.193Z,0.80
2019-01-02T17:21:59.875Z,0.80
2019-01-02T17:24:31.268Z,0.80
2019-01-02T17:27:04.043Z,0.70
2019-01-02T17:29:33.849Z,0.70
2019-01-02T17:32:06.393Z,0.70
2019-01-02T17:34:36.153Z,0.70
2019-01-02T17:37:08.598Z,0.70
2019-01-02T17:39:40.709Z,0.70
2019-01-02T17:42:10.460Z,0.70
2019-01-02T17:44:44.276Z,0.70
2019-01-02T17:47:16.646Z,0.70
2019-01-02T17:49:46.337Z,0.70
2019-01-02T17:52:18.831Z,0.70
2019-01-02T17:55:04.950Z,0.70
2019-01-02T17:57:32.354Z,0.60
2019-01-02T18:00:04.889Z,0.60
2019-01-02T18:02:34.916Z,0.60
2019-01-02T18:05:07.883Z,0.60
2019-01-02T18:07:40.045Z,0.60
2019-01-02T18:10:10.158Z,0.60
2019-01-02T18:12:43.305Z,0.60
2019-01-02T18:15:16.152Z,0.60
2019-01-02T18:17:53.909Z,0.60
2019-01-02T18:20:23.596Z,0.60
2019-01-02T18:22:54.964Z,0.50
2019-01-02T18:25:27.149Z,0.50
2019-01-02T18:27:56.508Z,0.50
2019-01-02T18:30:29.573Z,0.50
2019-01-02T18:32:59.261Z,0.50
2019-01-02T18:35:32.013Z,0.40
2019-01-02T18:38:04.179Z,0.40
2019-01-02T18:40:33.924Z,0.30
2019-01-02T18:43:06.572Z,0.30
2019-01-02T18:45:36.365Z,0.30
2019-01-02T18:48:08.803Z,0.30
2019-01-02T18:50:40.824Z,0.20
2019-01-02T18:53:17.880Z,0.20
2019-01-02T18:55:47.719Z,0.10
2019-01-02T18:58:19.028Z,0.10
2019-01-02T19:00:51.779Z,0.10
2019-01-02T19:03:21.545Z,0.10
2019-01-02T19:06:11.205Z,0.10
2019-01-02T19:08:44.505Z,0.00
2019-01-02T19:11:17.331Z,0.00
2019-01-02T19:13:47.030Z,0.00
2019-01-02T19:16:21.680Z,-0.10
2019-01-02T19:18:55.341Z,-0.10
2019-01-02T19:21:27.907Z,-0.10
2019-01-02T19:23:57.713Z,-0.10
2019-01-02T19:26:31.650Z,-0.10
2019-01-02T19:29:04.539Z,-0.10
2019-01-02T19:31:34.339Z,-0.10
2019-01-02T19:34:27.781Z,-0.20
2019-01-02T19:36:58.872Z,-0.20
2019-01-02T19:39:31.402Z,-0.10
2019-01-02T19:42:05.310Z,-0.20
2019-01-02T19:44:35.136Z,-0.20
2019-01-02T19:47:20.118Z,-0.30
2019-01-02T19:49:51.972Z,-0.30
2019-01-02T19:52:21.897Z,-0.40
2019-01-02T19:54:54.421Z,-0.40
2019-01-02T19:57:24.197Z,-0.50
2019-01-02T19:59:56.640Z,-0.50
2019-01-02T20:02:29.702Z,-0.40
2019-01-02T20:04:59.564Z,-0.50
2019-01-02T20:07:32.216Z,-0.60
2019-01-02T20:10:04.757Z,-0.60
2019-01-02T20:12:34.605Z,-0.50
2019-01-02T20:15:10.027Z,-0.50
2019-01-02T20:17:42.454Z,-0.50
2019-01-02T20:20:16.228Z,-0.50
2019-01-02T20:22:46.045Z,-0.40
2019-01-02T20:25:18.732Z,-0.50
2019-01-02T20:27:51.391Z,-0.50
2019-01-02T20:30:22.723Z,-0.60
2019-01-02T20:32:55.578Z,-0.70
2019-01-02T20:35:28.112Z,-0.70
2019-01-02T20:37:57.904Z,-0.80
2019-01-02T20:40:30.463Z,-0.80
2019-01-02T20:43:00.278Z,-0.80
2019-01-02T20:45:31.742Z,-0.90
2019-01-02T20:48:05.210Z,-1.00
2019-01-02T20:50:35.036Z,-1.10
2019-01-02T20:53:08.544Z,-1.20
2019-01-02T20:55:41.574Z,-1.20
2019-01-02T20:58:11.448Z,-1.20
2019-01-02T21:00:44.425Z,-1.20
2019-01-02T21:03:31.544Z,-1.20
2019-01-02T21:08:57.520Z,-1.30
2019-01-02T21:11:30.061Z,-1.30
2019-01-02T21:13:59.861Z,-1.30
2019-01-02T21:16:47.884Z,-1.20
2019-01-02T21:19:19.725Z,-1.10
2019-01-02T21:21:52.813Z,-1.00
2019-01-02T21:24:22.689Z,-1.00
2019-01-02T21:26:55.269Z,-0.90
2019-01-02T21:29:30.882Z,-0.90
2019-01-02T21:32:00.712Z,-0.90
2019-01-02T21:34:42.731Z,-0.90
2019-01-02T21:37:12.441Z,-0.90
2019-01-02T21:39:44.861Z,-0.90
2019-01-02T21:42:17.979Z,-1.00
2019-01-02T21:44:47.801Z,-1.10
2019-01-02T21:47:20.413Z,-1.10
2019-01-02T21:49:56.317Z,-1.00
2019-01-02T21:52:28.277Z,-1.10
2019-01-02T21:54:58.110Z,-1.10
2019-01-02T21:57:32.145Z,-1.10
2019-01-02T22:00:04.244Z,-1.10
2019-01-02T22:02:40.132Z,-1.20
2019-01-02T22:05:07.074Z,-1.30
2019-01-02T22:07:53.955Z,-1.30
2019-01-02T22:10:23.037Z,-1.40
2019-01-02T22:12:55.592Z,-1.50
2019-01-02T22:15:28.074Z,-1.50
2019-01-02T22:17:57.883Z,-1.60
2019-01-02T22:20:30.442Z,-1.60
2019-01-02T22:23:00.257Z,-1.60
2019-01-02T22:25:31.757Z,-1.70
2019-01-02T22:28:19.931Z,-1.70
2019-01-02T22:30:52.473Z,-1.80
2019-01-02T22:33:22.213Z,-1.90
2019-01-02T22:35:54.820Z,-1.90
2019-01-02T22:38:24.600Z,-1.80
2019-01-02T22:40:57.109Z,-1.80
2019-01-02T22:43:32.468Z,-1.80
2019-01-02T22:46:04.369Z,-1.80
2019-01-02T22:48:34.165Z,-1.80
2019-01-02T22:51:08.449Z,-1.80
2019-01-02T22:53:41.721Z,-1.80
2019-01-02T22:56:11.593Z,-1.90
2019-01-02T22:58:46.599Z,-2.00
2019-01-02T23:01:29.382Z,-2.00
2019-01-02T23:04:21.235Z,-2.10
2019-01-02T23:07:12.749Z,-2.20
2019-01-02T23:10:04.742Z,-2.20
2019-01-02T23:13:08.806Z,-2.30
2019-01-02T23:16:00.929Z,-2.40
2019-01-02T23:18:43.736Z,-2.40
2019-01-02T23:21:51.739Z,-2.40
2019-01-02T23:27:41.609Z,-2.40
2019-01-02T23:30:29.334Z,-2.30
2019-01-02T23:33:16.809Z,-2.30
2019-01-02T23:36:05.465Z,-2.30
2019-01-02T23:38:53.005Z,-2.40
2019-01-02T23:41:40.473Z,-2.40
2019-01-02T23:44:40.455Z,-2.60
2019-01-02T23:47:43.925Z,-2.70
2019-01-02T23:50:43.600Z,-2.80
2019-01-02T23:56:48.953Z,-2.90
2019-01-02T23:59:52.477Z,-2.90
